Portada
METAR-TAF:

METAR-TAF

Aeroports :

Nanning, Xina

latitud: 22-49N, longitud: 108-21E, altitud: 73 m

Observació

L'informe es va fer fa 19 minuts, a les 11:00 UTC
Vent 6 kt del Sud/Sud-Est
Temperatura 25°C
Humitat 61%
Pressió 1016 hPa
Visibilitat 10 km o més
sense núvols per sota de 1500 mi sense presència de cumulonimbus.

METAR: ZGNN 271100Z 16003MPS CAVOK 25/17 Q1016 NOSIG

Hora: 19:19 (11:19 UTC)

Pronòstic

L'informe es va fer fa 8 hores i 14 minuts, a les 03:05 UTC
Pronòstic vàlid del 27 a les 06 UTC al 28 a les 06 UTC
Vent 6 kt del Sud/Sud-Est
Visibilitat: 5000 m
Escasses núvols a una alçada de 1300 ft
Cel ennuvolat a una alçada de 3300 ft
boirina

TAF: ZGNN 270305Z 2706/2806 16003MPS 5000 BR FEW013 BKN033 TX27/2707Z TN18/2722Z

Observacions i pronòstics meteorològics de més de 4000 aeroports (METAR i TAF).

Les estacions disponibles són els punts grocs i vermells al mapa.

Posi el ratolí al punt desitjat per veure el nom de l'estació.

Feu clic per veure les observacions i els pronòstics meteorològics.

Per canviar el mapa: feu clic els botons verds amb una creu de color negre per apropar; al botó verd amb un guió per allunyar la imatge; o en les fletxes verdes per a mapes adjacents.


METAR-TAF: